Time;durP1;ratioP1;P1;durP2;ratioP2;P2;SDS_P1;SDS_P2;PMS_P1;PMS_P2;Temp;Humidity;BMP_temperature;BMP_pressure;BME280_temperature;BME280_humidity;BME280_pressure;Samples;Min_cycle;Max_cycle;Signal;HPM_P1;HPM_P2
2022/02/17 00:04:55;;;;;;;45.67;21.17;;;;;;;;;;10488202;28;20031;-72
2022/02/17 00:09:56;;;;;;;36.20;17.80;;;;;;;;;;10487884;28;20039;-72
2022/02/17 00:14:57;;;;;;;32.83;15.45;;;;;;;;;;10462122;28;20017;-71
2022/02/17 00:19:57;;;;;;;37.42;17.08;;;;;;;;;;10445464;28;20515;-75
2022/02/17 00:24:58;;;;;;;40.38;16.17;;;;;;;;;;10445649;28;20446;-70
2022/02/17 00:29:58;;;;;;;38.58;17.50;;;;;;;;;;10445595;28;20412;-74
2022/02/17 00:34:58;;;;;;;41.47;17.13;;;;;;;;;;10444545;28;20478;-72
2022/02/17 00:39:58;;;;;;;39.75;17.52;;;;;;;;;;10443900;28;20040;-72
2022/02/17 00:44:59;;;;;;;39.93;17.27;;;;;;;;;;10471435;28;20024;-75
2022/02/17 00:49:59;;;;;;;45.73;19.67;;;;;;;;;;10484834;28;20031;-71
2022/02/17 00:54:59;;;;;;;36.03;19.40;;;;;;;;;;10501178;28;20073;-71
2022/02/17 01:00:00;;;;;;;43.50;19.60;;;;;;;;;;10485516;28;20016;-71
2022/02/17 01:05:00;;;;;;;35.28;18.52;;;;;;;;;;10501749;28;20305;-71
2022/02/17 01:10:01;;;;;;;37.70;19.02;;;;;;;;;;10500708;28;20020;-72
2022/02/17 01:15:01;;;;;;;44.05;20.00;;;;;;;;;;10460601;28;20017;-72
2022/02/17 01:20:02;;;;;;;43.57;20.00;;;;;;;;;;10443794;28;20016;-72
2022/02/17 01:25:03;;;;;;;42.80;20.35;;;;;;;;;;10459409;28;20647;-71
2022/02/17 01:30:04;;;;;;;42.33;18.98;;;;;;;;;;10444604;28;20429;-72
2022/02/17 01:35:04;;;;;;;39.83;19.52;;;;;;;;;;10459312;28;20052;-74
2022/02/17 01:40:05;;;;;;;50.50;21.13;;;;;;;;;;10459653;28;20021;-70
2022/02/17 01:45:06;;;;;;;50.58;22.98;;;;;;;;;;10459748;28;20555;-75
2022/02/17 01:50:07;;;;;;;46.60;21.55;;;;;;;;;;10458862;28;20021;-75
2022/02/17 01:55:07;;;;;;;42.88;20.58;;;;;;;;;;10443571;28;20423;-72
2022/02/17 02:00:08;;;;;;;43.17;21.00;;;;;;;;;;10458774;28;20028;-73
2022/02/17 02:05:08;;;;;;;46.85;20.05;;;;;;;;;;10460116;28;20025;-78
2022/02/17 02:10:08;;;;;;;37.00;20.17;;;;;;;;;;10474037;28;20021;-72
2022/02/17 02:15:09;;;;;;;48.55;21.42;;;;;;;;;;10482125;28;20806;-73
2022/02/17 02:20:14;;;;;;;45.80;22.13;;;;;;;;;;10482785;28;20021;-71
2022/02/17 02:25:14;;;;;;;47.40;22.02;;;;;;;;;;10483005;28;20571;-72
2022/02/17 02:30:15;;;;;;;44.15;22.60;;;;;;;;;;10482650;28;20054;-76
2022/02/17 02:35:16;;;;;;;47.00;23.25;;;;;;;;;;10482149;28;20083;-75
2022/02/17 02:40:16;;;;;;;46.13;22.23;;;;;;;;;;10482166;28;20032;-75
2022/02/17 02:45:16;;;;;;;40.10;19.63;;;;;;;;;;10482945;28;20027;-72
2022/02/17 02:50:17;;;;;;;49.05;22.90;;;;;;;;;;10481675;28;20025;-77
2022/02/17 02:55:17;;;;;;;53.55;23.25;;;;;;;;;;10482203;28;20469;-72
2022/02/17 03:00:18;;;;;;;53.10;25.30;;;;;;;;;;10482066;28;20020;-76
2022/02/17 03:05:18;;;;;;;48.92;21.90;;;;;;;;;;10481924;28;20263;-73
2022/02/17 03:10:18;;;;;;;88.57;24.87;;;;;;;;;;10482048;28;20575;-71
2022/02/17 03:15:20;;;;;;;53.33;23.38;;;;;;;;;;10481356;28;20572;-73
2022/02/17 03:20:21;;;;;;;64.13;23.42;;;;;;;;;;10483561;28;20024;-75
2022/02/17 03:25:21;;;;;;;52.70;25.42;;;;;;;;;;10481791;28;20476;-72
2022/02/17 03:30:21;;;;;;;63.45;28.67;;;;;;;;;;10487853;28;20075;-72
2022/02/17 03:35:21;;;;;;;49.17;25.88;;;;;;;;;;10489462;28;20040;-77
2022/02/17 03:40:22;;;;;;;52.78;28.05;;;;;;;;;;10488983;28;20020;-74
2022/02/17 03:45:22;;;;;;;53.60;24.70;;;;;;;;;;10489613;28;20020;-72
2022/02/17 03:50:22;;;;;;;52.27;27.17;;;;;;;;;;10488865;28;20024;-76
2022/02/17 03:55:23;;;;;;;51.97;25.15;;;;;;;;;;10488320;28;20281;-73
2022/02/17 04:00:23;;;;;;;51.93;26.27;;;;;;;;;;10488963;28;20510;-72
2022/02/17 04:05:23;;;;;;;50.28;25.35;;;;;;;;;;10488318;28;20016;-71
2022/02/17 04:10:23;;;;;;;49.08;24.73;;;;;;;;;;10489857;28;20036;-72
2022/02/17 04:15:24;;;;;;;59.57;25.50;;;;;;;;;;10488127;28;20048;-75
2022/02/17 04:20:24;;;;;;;52.38;28.13;;;;;;;;;;10487828;28;20017;-77
2022/02/17 04:25:24;;;;;;;53.95;28.05;;;;;;;;;;10489091;28;20120;-73
2022/02/17 04:30:25;;;;;;;51.72;28.85;;;;;;;;;;10467612;28;20484;-75
2022/02/17 04:35:25;;;;;;;60.90;30.35;;;;;;;;;;10462225;28;20518;-73
2022/02/17 04:45:44;;;;;;;71.32;34.70;;;;;;;;;;10486404;28;20021;-72
2022/02/17 04:50:45;;;;;;;60.53;30.37;;;;;;;;;;10461381;28;20029;-71
2022/02/17 04:55:45;;;;;;;62.37;30.07;;;;;;;;;;10484482;28;20318;-71
2022/02/17 05:00:46;;;;;;;67.75;27.02;;;;;;;;;;10483581;28;20026;-73
2022/02/17 05:05:47;;;;;;;50.55;26.33;;;;;;;;;;10444329;28;20013;-75
2022/02/17 05:10:48;;;;;;;51.60;28.33;;;;;;;;;;10461738;28;20412;-76
2022/02/17 05:15:48;;;;;;;51.00;25.50;;;;;;;;;;10460748;28;20538;-76
2022/02/17 05:20:48;;;;;;;63.07;30.00;;;;;;;;;;10462324;28;20112;-74
2022/02/17 05:25:48;;;;;;;41.83;22.43;;;;;;;;;;10484740;28;20020;-74
2022/02/17 05:30:49;;;;;;;43.30;24.20;;;;;;;;;;10484402;28;20112;-73
2022/02/17 05:35:52;;;;;;;40.90;22.50;;;;;;;;;;10464337;28;20500;-74
2022/02/17 05:40:52;;;;;;;51.47;25.30;;;;;;;;;;10459729;28;20037;-71
2022/02/17 05:45:52;;;;;;;43.90;25.90;;;;;;;;;;10459691;28;20413;-79
2022/02/17 05:50:52;;;;;;;48.63;26.50;;;;;;;;;;10454310;28;20031;-76
2022/02/17 05:55:53;;;;;;;46.97;23.00;;;;;;;;;;10456319;28;20025;-73
2022/02/17 06:00:53;;;;;;;42.60;20.13;;;;;;;;;;10443496;28;20020;-79
2022/02/17 06:05:53;;;;;;;38.67;20.15;;;;;;;;;;10457639;28;20530;-78
2022/02/17 06:10:54;;;;;;;36.67;18.03;;;;;;;;;;10442987;28;20409;-77
2022/02/17 06:15:55;;;;;;;38.10;20.47;;;;;;;;;;10441177;28;20255;-72
2022/02/17 06:20:55;;;;;;;34.83;17.67;;;;;;;;;;10476785;28;20020;-78
2022/02/17 06:25:55;;;;;;;36.08;18.95;;;;;;;;;;10480750;28;20060;-73
2022/02/17 06:30:56;;;;;;;37.47;19.77;;;;;;;;;;10482223;28;20020;-75
2022/02/17 06:35:56;;;;;;;37.45;18.40;;;;;;;;;;10481127;28;20048;-75
2022/02/17 06:40:57;;;;;;;37.28;18.77;;;;;;;;;;10482004;28;20377;-79
2022/02/17 06:45:58;;;;;;;40.08;19.75;;;;;;;;;;10482363;28;20454;-78
2022/02/17 06:50:58;;;;;;;41.13;18.52;;;;;;;;;;10481972;28;20028;-74
2022/02/17 06:55:59;;;;;;;39.37;17.90;;;;;;;;;;10481372;28;20047;-74
2022/02/17 07:00:59;;;;;;;48.23;19.13;;;;;;;;;;10480957;28;20025;-77
2022/02/17 07:06:00;;;;;;;36.03;17.75;;;;;;;;;;10489450;28;22171;-74
2022/02/17 07:11:03;;;;;;;33.38;18.20;;;;;;;;;;10489457;28;20032;-77
2022/02/17 07:16:03;;;;;;;30.45;16.85;;;;;;;;;;10489510;28;20060;-78
2022/02/17 07:21:05;;;;;;;35.03;16.85;;;;;;;;;;10489526;28;20783;-76
2022/02/17 07:26:07;;;;;;;31.02;16.60;;;;;;;;;;10489271;28;20407;-81
2022/02/17 07:31:09;;;;;;;36.33;16.52;;;;;;;;;;10489687;28;20012;-79
2022/02/17 07:36:09;;;;;;;39.97;17.42;;;;;;;;;;10489718;28;20044;-76
2022/02/17 07:41:11;;;;;;;37.15;18.23;;;;;;;;;;10492882;28;20440;-73
2022/02/17 07:46:12;;;;;;;35.47;15.65;;;;;;;;;;10492826;28;20024;-76
2022/02/17 07:51:12;;;;;;;28.10;15.38;;;;;;;;;;10493010;28;20028;-76
2022/02/17 07:56:13;;;;;;;35.75;18.73;;;;;;;;;;10492549;28;20024;-75
2022/02/17 08:01:13;;;;;;;43.72;20.17;;;;;;;;;;10492365;28;20449;-79
2022/02/17 08:06:13;;;;;;;48.13;22.20;;;;;;;;;;10492309;28;20043;-75
2022/02/17 08:11:14;;;;;;;53.05;22.25;;;;;;;;;;10492264;28;20029;-80
2022/02/17 08:16:16;;;;;;;42.10;21.88;;;;;;;;;;10490267;28;20052;-73
2022/02/17 08:21:16;;;;;;;53.47;22.30;;;;;;;;;;10491700;28;20086;-71
2022/02/17 08:26:17;;;;;;;49.28;22.50;;;;;;;;;;10491601;28;20043;-70
2022/02/17 08:31:18;;;;;;;49.13;23.77;;;;;;;;;;10491124;28;20043;-78
2022/02/17 08:36:18;;;;;;;40.08;21.83;;;;;;;;;;10490744;28;20052;-78
2022/02/17 08:41:18;;;;;;;45.03;21.92;;;;;;;;;;10491267;28;20025;-75
2022/02/17 08:46:20;;;;;;;48.33;23.70;;;;;;;;;;10490031;28;20021;-80
2022/02/17 08:51:22;;;;;;;39.45;21.05;;;;;;;;;;10504008;28;20048;-73
2022/02/17 08:56:22;;;;;;;42.00;23.35;;;;;;;;;;10490566;28;20050;-71
2022/02/17 09:01:22;;;;;;;39.10;21.23;;;;;;;;;;10490279;28;20534;-73
2022/02/17 09:06:23;;;;;;;50.97;22.10;;;;;;;;;;10490936;28;20034;-73
2022/02/17 09:11:23;;;;;;;47.50;19.70;;;;;;;;;;10491043;28;20097;-73
2022/02/17 09:16:23;;;;;;;36.70;18.70;;;;;;;;;;10490776;28;20510;-74
2022/02/17 09:21:24;;;;;;;33.77;19.57;;;;;;;;;;10488792;28;20097;-76
2022/02/17 09:26:24;;;;;;;44.37;18.50;;;;;;;;;;10488522;28;20021;-74
2022/02/17 09:31:24;;;;;;;36.13;19.37;;;;;;;;;;10490128;28;20025;-74
2022/02/17 09:36:25;;;;;;;49.47;20.93;;;;;;;;;;10488409;28;20059;-77
2022/02/17 09:41:27;;;;;;;42.95;19.05;;;;;;;;;;10488101;28;20597;-74
2022/02/17 09:46:27;;;;;;;39.28;19.67;;;;;;;;;;10488485;28;20032;-75
2022/02/17 09:51:32;;;;;;;42.03;21.10;;;;;;;;;;10489017;28;20381;-74
2022/02/17 09:56:35;;;;;;;38.28;20.38;;;;;;;;;;10488086;28;20043;-75
2022/02/17 10:01:35;;;;;;;33.72;18.10;;;;;;;;;;10487647;28;20420;-74
2022/02/17 10:06:47;;;;;;;31.40;17.03;;;;;;;;;;10488839;28;20032;-73
2022/02/17 10:11:48;;;;;;;28.88;14.65;;;;;;;;;;10487201;28;20434;-77
2022/02/17 10:16:51;;;;;;;29.65;13.57;;;;;;;;;;10487534;28;20021;-74
2022/02/17 10:22:07;;;;;;;35.42;17.48;;;;;;;;;;10487208;28;20035;-75
2022/02/17 10:27:09;;;;;;;28.17;15.13;;;;;;;;;;10488692;28;20028;-74
2022/02/17 10:32:10;;;;;;;33.60;14.77;;;;;;;;;;10487804;28;20066;-77
2022/02/17 10:37:11;;;;;;;34.17;15.65;;;;;;;;;;10469704;28;20145;-77
2022/02/17 10:42:13;;;;;;;30.23;15.67;;;;;;;;;;10486620;28;20624;-72
2022/02/17 10:47:22;;;;;;;31.55;15.75;;;;;;;;;;10486373;28;20028;-73
2022/02/17 10:52:30;;;;;;;25.00;13.77;;;;;;;;;;10485971;28;20029;-75
2022/02/17 10:57:30;;;;;;;25.80;14.98;;;;;;;;;;10489905;28;20020;-81
2022/02/17 11:02:31;;;;;;;24.02;13.38;;;;;;;;;;10485780;28;20494;-80
2022/02/17 11:07:31;;;;;;;27.85;15.02;;;;;;;;;;10485949;28;20031;-75
2022/02/17 11:12:33;;;;;;;29.02;14.68;;;;;;;;;;10485967;28;20113;-74
2022/02/17 11:17:34;;;;;;;25.00;14.27;;;;;;;;;;10485776;28;20111;-71
2022/02/17 11:22:35;;;;;;;31.02;14.90;;;;;;;;;;10485500;28;20548;-78
2022/02/17 11:27:55;;;;;;;31.13;15.87;;;;;;;;;;10486329;28;20021;-75
2022/02/17 11:33:13;;;;;;;29.52;15.40;;;;;;;;;;10484750;28;20155;-74
2022/02/17 11:38:30;;;;;;;35.58;13.88;;;;;;;;;;10485264;28;20032;-74
2022/02/17 11:43:32;;;;;;;32.87;16.43;;;;;;;;;;10484646;28;20074;-75
2022/02/17 11:48:33;;;;;;;26.90;12.50;;;;;;;;;;10487091;28;20017;-76
2022/02/17 11:53:35;;;;;;;38.95;15.30;;;;;;;;;;10492739;28;20032;-77
2022/02/17 11:58:38;;;;;;;25.40;13.15;;;;;;;;;;10492854;28;20021;-75
2022/02/17 12:04:05;;;;;;;25.27;12.50;;;;;;;;;;10491596;28;20415;-76
2022/02/17 12:09:06;;;;;;;16.58;7.47;;;;;;;;;;10488490;28;20521;-74
2022/02/17 12:14:07;;;;;;;17.63;5.85;;;;;;;;;;10492897;28;20115;-73
2022/02/17 12:19:11;;;;;;;9.43;5.15;;;;;;;;;;10449825;28;20032;-72
2022/02/17 12:24:13;;;;;;;13.18;6.38;;;;;;;;;;10450062;28;20029;-74
2022/02/17 12:29:21;;;;;;;8.68;4.90;;;;;;;;;;10449840;28;20013;-74
2022/02/17 12:34:21;;;;;;;10.00;5.80;;;;;;;;;;10449359;28;20053;-77
2022/02/17 12:39:25;;;;;;;10.40;4.72;;;;;;;;;;10449446;28;20271;-75
2022/02/17 12:44:30;;;;;;;13.50;4.53;;;;;;;;;;10448631;28;20021;-74
2022/02/17 12:49:31;;;;;;;10.65;4.30;;;;;;;;;;10449193;28;20029;-74
2022/02/17 12:54:32;;;;;;;8.93;4.38;;;;;;;;;;10465477;28;20051;-74
2022/02/17 12:59:32;;;;;;;6.82;4.07;;;;;;;;;;10449641;28;20043;-74
2022/02/17 13:04:32;;;;;;;7.15;4.10;;;;;;;;;;10484350;28;20036;-79
2022/02/17 13:09:33;;;;;;;8.50;3.53;;;;;;;;;;10489578;28;20444;-76
2022/02/17 13:14:44;;;;;;;8.73;3.30;;;;;;;;;;10465094;28;20354;-73
2022/02/17 13:19:47;;;;;;;4.95;2.42;;;;;;;;;;10487947;28;20583;-73
2022/02/17 13:24:54;;;;;;;13.57;3.80;;;;;;;;;;10463670;28;20021;-74
2022/02/17 13:30:08;;;;;;;16.27;3.72;;;;;;;;;;10463314;28;20506;-74
2022/02/17 13:35:10;;;;;;;9.38;3.55;;;;;;;;;;10489840;28;20051;-74
2022/02/17 13:40:11;;;;;;;5.95;3.10;;;;;;;;;;10488350;28;20036;-74
2022/02/17 13:45:18;;;;;;;5.53;2.15;;;;;;;;;;10471291;28;20033;-74
2022/02/17 13:50:19;;;;;;;2.75;1.67;;;;;;;;;;10487693;28;20020;-78
2022/02/17 13:55:19;;;;;;;7.65;2.70;;;;;;;;;;10487695;28;20028;-74
2022/02/17 14:00:26;;;;;;;4.75;2.70;;;;;;;;;;10486752;28;20492;-74
2022/02/17 14:05:30;;;;;;;6.63;2.95;;;;;;;;;;10487225;28;20120;-75
2022/02/17 14:10:30;;;;;;;14.68;2.45;;;;;;;;;;10487808;28;20059;-74
2022/02/17 14:15:30;;;;;;;8.00;3.80;;;;;;;;;;10487149;28;20024;-78
2022/02/17 14:20:31;;;;;;;5.57;2.70;;;;;;;;;;10486757;28;20033;-74
2022/02/17 14:25:31;;;;;;;3.90;2.35;;;;;;;;;;10485943;28;20028;-78
2022/02/17 14:30:31;;;;;;;6.45;2.53;;;;;;;;;;10486313;28;20039;-81
2022/02/17 14:35:32;;;;;;;6.03;3.33;;;;;;;;;;10485588;28;20055;-75
2022/02/17 14:40:37;;;;;;;3.60;2.80;;;;;;;;;;10486850;28;20551;-74
2022/02/17 14:45:38;;;;;;;6.65;2.70;;;;;;;;;;10486928;28;20147;-74
2022/02/17 14:50:38;;;;;;;4.88;2.42;;;;;;;;;;10486704;28;20349;-76
2022/02/17 14:55:39;;;;;;;5.30;2.83;;;;;;;;;;10486763;28;20440;-71
2022/02/17 15:00:39;;;;;;;5.07;3.35;;;;;;;;;;10474877;28;20393;-77
2022/02/17 15:05:42;;;;;;;5.97;3.38;;;;;;;;;;10461194;28;20039;-73
2022/02/17 15:10:42;;;;;;;7.22;3.45;;;;;;;;;;10460803;28;20033;-76
2022/02/17 15:15:43;;;;;;;8.23;3.70;;;;;;;;;;10484536;28;20039;-73
2022/02/17 15:20:43;;;;;;;6.75;3.13;;;;;;;;;;10486637;28;20052;-76
2022/02/17 15:25:43;;;;;;;6.17;3.57;;;;;;;;;;10491090;28;20035;-73
2022/02/17 15:30:43;;;;;;;6.40;3.03;;;;;;;;;;10494593;28;20073;-73
2022/02/17 15:35:44;;;;;;;7.63;2.72;;;;;;;;;;10493380;28;20086;-73
2022/02/17 15:40:45;;;;;;;9.90;3.93;;;;;;;;;;10453344;28;20048;-74
2022/02/17 15:45:46;;;;;;;7.22;3.15;;;;;;;;;;10467975;28;20033;-75
2022/02/17 15:50:46;;;;;;;8.02;3.92;;;;;;;;;;10452518;28;20025;-73
2022/02/17 15:55:47;;;;;;;8.52;3.55;;;;;;;;;;10467762;28;20039;-74
2022/02/17 16:00:47;;;;;;;8.48;3.75;;;;;;;;;;10450967;28;20021;-72
2022/02/17 16:05:48;;;;;;;11.27;4.20;;;;;;;;;;10468330;28;20032;-76
2022/02/17 16:10:48;;;;;;;10.13;4.37;;;;;;;;;;10493525;28;20024;-72
2022/02/17 16:15:48;;;;;;;18.00;5.00;;;;;;;;;;10490761;28;20112;-80
2022/02/17 16:20:48;;;;;;;10.68;4.25;;;;;;;;;;10491075;28;20021;-73
2022/02/17 16:25:49;;;;;;;13.13;5.70;;;;;;;;;;10491147;28;20101;-73
2022/02/17 16:30:49;;;;;;;17.48;5.53;;;;;;;;;;10490321;28;20039;-73
2022/02/17 16:35:50;;;;;;;13.25;4.47;;;;;;;;;;10486857;28;20048;-74
2022/02/17 16:40:50;;;;;;;12.73;4.63;;;;;;;;;;10492268;28;20032;-74
2022/02/17 16:45:51;;;;;;;15.45;6.03;;;;;;;;;;10490291;28;20028;-77
2022/02/17 16:50:51;;;;;;;13.27;5.72;;;;;;;;;;10490760;28;20024;-72
2022/02/17 16:55:52;;;;;;;7.50;3.87;;;;;;;;;;10491461;28;20025;-77
2022/02/17 17:00:55;;;;;;;10.15;5.10;;;;;;;;;;10473522;28;20032;-72
2022/02/17 17:05:55;;;;;;;29.08;8.98;;;;;;;;;;10489526;28;20120;-75
2022/02/17 17:10:56;;;;;;;23.13;10.25;;;;;;;;;;10489538;28;20119;-71
2022/02/17 17:15:57;;;;;;;14.18;6.18;;;;;;;;;;10490451;28;20622;-73
2022/02/17 17:20:57;;;;;;;18.65;7.10;;;;;;;;;;10489108;28;20032;-76
2022/02/17 17:25:57;;;;;;;18.60;7.68;;;;;;;;;;10488747;28;20028;-73
2022/02/17 17:30:58;;;;;;;24.17;7.68;;;;;;;;;;10488896;28;20543;-72
2022/02/17 17:35:58;;;;;;;35.85;10.35;;;;;;;;;;10488615;28;20052;-77
2022/02/17 17:40:59;;;;;;;38.77;11.03;;;;;;;;;;10486149;28;20039;-75
2022/02/17 17:45:59;;;;;;;34.72;10.93;;;;;;;;;;10463772;28;20033;-76
2022/02/17 17:51:03;;;;;;;36.45;9.38;;;;;;;;;;10463261;28;20045;-74
2022/02/17 17:56:03;;;;;;;19.80;8.93;;;;;;;;;;10463422;28;20467;-77
2022/02/17 18:01:04;;;;;;;28.92;10.93;;;;;;;;;;10446538;28;20033;-72
2022/02/17 18:06:04;;;;;;;28.67;11.65;;;;;;;;;;10447542;28;20389;-73
2022/02/17 18:11:05;;;;;;;25.75;10.07;;;;;;;;;;10462932;28;20117;-73
2022/02/17 18:16:06;;;;;;;32.60;14.02;;;;;;;;;;10462697;28;20463;-76
2022/02/17 18:21:06;;;;;;;34.63;12.63;;;;;;;;;;10462270;28;20380;-72
2022/02/17 18:26:06;;;;;;;33.08;12.93;;;;;;;;;;10445539;28;20033;-72
2022/02/17 18:31:07;;;;;;;26.70;11.98;;;;;;;;;;10462165;28;20625;-73
2022/02/17 18:36:07;;;;;;;29.08;11.13;;;;;;;;;;10477711;28;20187;-73
2022/02/17 18:41:07;;;;;;;29.67;11.73;;;;;;;;;;10486949;28;20035;-72
2022/02/17 18:46:08;;;;;;;25.42;11.63;;;;;;;;;;10486763;28;20070;-77
2022/02/17 18:51:08;;;;;;;36.28;12.15;;;;;;;;;;10461784;28;20056;-74
2022/02/17 18:56:09;;;;;;;27.40;11.85;;;;;;;;;;10450031;28;20415;-75
2022/02/17 19:01:10;;;;;;;25.52;10.55;;;;;;;;;;10444751;28;20424;-71
2022/02/17 19:06:12;;;;;;;30.45;11.95;;;;;;;;;;10461986;28;20036;-74
2022/02/17 19:11:12;;;;;;;26.27;11.27;;;;;;;;;;10485973;28;20025;-73
2022/02/17 19:16:16;;;;;;;28.35;11.23;;;;;;;;;;10486346;28;20024;-74
2022/02/17 19:21:16;;;;;;;27.05;12.00;;;;;;;;;;10486327;28;20028;-73
2022/02/17 19:26:16;;;;;;;21.53;9.67;;;;;;;;;;10461241;28;20029;-73
2022/02/17 19:31:17;;;;;;;28.08;11.07;;;;;;;;;;10444712;28;20071;-73
2022/02/17 19:36:17;;;;;;;23.58;9.27;;;;;;;;;;10448575;28;20064;-74
2022/02/17 19:41:18;;;;;;;26.83;10.02;;;;;;;;;;10461068;28;20024;-73
2022/02/17 19:46:18;;;;;;;27.33;10.93;;;;;;;;;;10460888;28;20108;-73
2022/02/17 19:51:24;;;;;;;28.10;11.25;;;;;;;;;;10444086;28;20790;-71
2022/02/17 19:56:28;;;;;;;24.83;10.93;;;;;;;;;;10444214;28;20104;-73
2022/02/17 20:01:55;;;;;;;38.40;12.40;;;;;;;;;;10445457;28;20033;-73
2022/02/17 20:06:56;;;;;;;28.65;11.55;;;;;;;;;;10459320;28;20025;-72
2022/02/17 20:11:56;;;;;;;32.75;12.27;;;;;;;;;;10464689;28;20401;-72
2022/02/17 20:16:56;;;;;;;30.42;11.65;;;;;;;;;;10467437;28;20484;-77
2022/02/17 20:21:57;;;;;;;31.90;13.20;;;;;;;;;;10474230;28;20094;-79
2022/02/17 20:26:57;;;;;;;35.80;14.50;;;;;;;;;;10471561;28;20021;-73
2022/02/17 20:31:58;;;;;;;35.97;14.93;;;;;;;;;;10445057;28;20036;-75
2022/02/17 20:36:58;;;;;;;33.03;15.43;;;;;;;;;;10464007;28;20074;-71
2022/02/17 20:41:59;;;;;;;30.02;13.88;;;;;;;;;;10469775;28;20037;-73
2022/02/17 20:52:18;;;;;;;32.88;14.15;;;;;;;;;;10449997;28;20021;-74
2022/02/17 20:57:19;;;;;;;31.98;14.77;;;;;;;;;;10449201;28;20416;-74
2022/02/17 21:02:19;;;;;;;29.50;14.10;;;;;;;;;;10449799;28;20504;-73
2022/02/17 21:07:19;;;;;;;38.13;15.27;;;;;;;;;;10447083;28;20031;-77
2022/02/17 21:12:44;;;;;;;30.27;13.40;;;;;;;;;;10449360;28;20027;-74
2022/02/17 21:17:40;;;;;;;32.10;14.10;;;;;;;;;;10462080;28;20547;-74
2022/02/17 21:22:40;;;;;;;31.10;14.40;;;;;;;;;;10463883;28;20151;-74
2022/02/17 21:27:40;;;;;;;26.63;14.13;;;;;;;;;;10463988;28;20025;-73
2022/02/17 21:32:41;;;;;;;33.42;13.32;;;;;;;;;;10447292;28;20386;-73
2022/02/17 21:37:41;;;;;;;27.20;13.68;;;;;;;;;;10463308;28;20504;-72
2022/02/17 21:42:41;;;;;;;28.80;14.20;;;;;;;;;;10463338;28;20519;-73
2022/02/17 21:47:41;;;;;;;30.17;15.65;;;;;;;;;;10447381;28;20016;-73
2022/02/17 21:52:42;;;;;;;35.22;15.20;;;;;;;;;;10446493;28;20020;-73
2022/02/17 21:57:42;;;;;;;35.85;13.68;;;;;;;;;;10447487;28;20416;-74
2022/02/17 22:02:42;;;;;;;29.77;13.90;;;;;;;;;;10447501;28;20029;-72
2022/02/17 22:07:43;;;;;;;34.57;13.70;;;;;;;;;;10447452;28;20013;-72
2022/02/17 22:12:43;;;;;;;33.83;14.10;;;;;;;;;;10462100;28;20383;-72
2022/02/17 22:17:44;;;;;;;31.08;13.23;;;;;;;;;;10486797;28;20020;-72
2022/02/17 22:22:45;;;;;;;27.83;12.52;;;;;;;;;;10488642;28;20020;-74
2022/02/17 22:27:46;;;;;;;27.15;12.27;;;;;;;;;;10486221;28;20017;-73
2022/02/17 22:32:46;;;;;;;22.13;11.18;;;;;;;;;;10484207;28;20105;-75
2022/02/17 22:37:46;;;;;;;25.02;10.75;;;;;;;;;;10486545;28;20032;-73
2022/02/17 22:42:47;;;;;;;24.08;12.57;;;;;;;;;;10485623;28;20235;-72
2022/02/17 22:47:47;;;;;;;29.60;11.50;;;;;;;;;;10460745;28;20024;-77
2022/02/17 22:52:47;;;;;;;27.63;11.43;;;;;;;;;;10461637;28;20380;-73
2022/02/17 22:57:50;;;;;;;34.93;12.73;;;;;;;;;;10461674;28;20496;-73
2022/02/17 23:02:51;;;;;;;33.00;13.05;;;;;;;;;;10445441;28;20314;-73
2022/02/17 23:13:10;;;;;;;28.85;11.98;;;;;;;;;;10444532;28;20037;-73
2022/02/17 23:23:29;;;;;;;19.05;9.65;;;;;;;;;;10487269;28;20028;-76
2022/02/17 23:28:30;;;;;;;23.50;10.50;;;;;;;;;;10469487;28;20405;-79
2022/02/17 23:33:31;;;;;;;31.60;12.03;;;;;;;;;;10460948;28;20053;-76
2022/02/17 23:38:31;;;;;;;26.70;11.88;;;;;;;;;;10461120;28;20029;-79
2022/02/17 23:43:31;;;;;;;23.73;10.70;;;;;;;;;;10462107;28;20031;-72
2022/02/17 23:48:33;;;;;;;22.98;11.05;;;;;;;;;;10452366;28;20025;-73
2022/02/17 23:53:33;;;;;;;26.60;10.85;;;;;;;;;;10453393;28;20479;-74
2022/02/17 23:58:34;;;;;;;23.33;11.05;;;;;;;;;;10453378;28;20029;-75
